Portada
METAR-TAF:

METAR-TAF

Aeroports :

Tahití, Polinèsia Francesa

latitud: 17-33S, longitud: 149-37W, altitud: 2 m

Observació

L'informe es va fer fa 22 minuts, a les 00:30 UTC
Vent 11 kt del Nord-Est
Temperatura 31°C
Humitat 71%
Pressió 1009 hPa
Visibilitat 10 km o més

METAR: NTAA 040030Z AUTO 05011KT 9999 NCD 31/25 Q1009 NOSIG

Hora: 14:52 (00:52 UTC)

Pronòstic

L'informe es va fer fa 1 hora i 52 minuts, a les 23:00 UTC
Pronòstic vàlid del 04 a les 00 UTC al 05 a les 06 UTC
Vent 15 kt del Nord-Est
Visibilitat 10 km o més
Escasses núvols a una alçada de 2300 ft

TAF: NTAA 032300Z 0400/0506 04015KT 9999 FEW023

Observacions i pronòstics meteorològics de més de 4000 aeroports (METAR i TAF).

Les estacions disponibles són els punts grocs i vermells al mapa.

Posi el ratolí al punt desitjat per veure el nom de l'estació.

Feu clic per veure les observacions i els pronòstics meteorològics.

Per canviar el mapa: feu clic els botons verds amb una creu de color negre per apropar; al botó verd amb un guió per allunyar la imatge; o en les fletxes verdes per a mapes adjacents.


METAR-TAF: